Time;durP1;ratioP1;P1;durP2;ratioP2;P2;SDS_P1;SDS_P2;PMS_P1;PMS_P2;Temp;Humidity;BMP_temperature;BMP_pressure;BME280_temperature;BME280_humidity;BME280_pressure;Samples;Min_cycle;Max_cycle;Signal;HPM_P1;HPM_P2
2021/09/07 00:00:12;;;;;;;20.45;13.63;;;15.90;99.90;;;;;;5069161;28;20376;-55
2021/09/07 00:02:38;;;;;;;21.67;13.30;;;15.90;99.90;;;;;;5069521;28;20387;-56
2021/09/07 00:05:04;;;;;;;23.42;13.80;;;15.90;99.90;;;;;;5068725;28;20877;-55
2021/09/07 00:07:29;;;;;;;22.90;14.20;;;15.90;99.90;;;;;;5069430;28;20407;-55
2021/09/07 00:09:55;;;;;;;20.17;13.23;;;15.80;99.90;;;;;;5068707;28;20384;-55
2021/09/07 00:12:21;;;;;;;21.37;13.37;;;15.70;99.90;;;;;;5068948;28;20804;-56
2021/09/07 00:14:46;;;;;;;20.27;13.65;;;15.70;99.90;;;;;;5068286;28;20372;-55
2021/09/07 00:17:12;;;;;;;20.40;13.80;;;15.70;99.90;;;;;;5067733;28;20407;-56
2021/09/07 00:19:39;;;;;;;21.65;13.43;;;15.70;99.90;;;;;;5069427;28;20375;-55
2021/09/07 00:22:05;;;;;;;21.83;12.93;;;15.70;99.90;;;;;;5068753;28;20380;-56
2021/09/07 00:24:31;;;;;;;22.90;13.52;;;15.70;99.90;;;;;;5069386;28;20935;-56
2021/09/07 00:26:58;;;;;;;18.40;13.30;;;15.70;99.90;;;;;;5068480;28;20494;-56
2021/09/07 00:29:27;;;;;;;20.55;12.85;;;15.70;99.90;;;;;;5069211;28;20388;-57
2021/09/07 00:31:53;;;;;;;19.45;13.18;;;15.60;99.90;;;;;;5068622;28;20864;-56
2021/09/07 00:34:18;;;;;;;18.40;13.02;;;15.60;99.90;;;;;;5069030;28;20380;-55
2021/09/07 00:36:44;;;;;;;21.25;13.90;;;15.70;99.90;;;;;;5068453;28;20372;-57
2021/09/07 00:39:11;;;;;;;21.25;13.65;;;15.50;99.90;;;;;;5069185;28;20384;-56
2021/09/07 00:41:41;;;;;;;21.75;14.00;;;15.50;99.90;;;;;;5070928;28;20415;-56
2021/09/07 00:44:23;;;;;;;21.67;14.27;;;15.50;99.90;;;;;;5072732;28;20394;-56
2021/09/07 00:47:04;;;;;;;24.35;14.85;;;15.50;99.90;;;;;;5072277;28;20437;-55
2021/09/07 00:49:32;;;;;;;21.42;14.80;;;15.50;99.90;;;;;;5073098;28;20395;-56
2021/09/07 00:51:57;;;;;;;20.50;13.60;;;15.50;99.90;;;;;;5072082;28;20463;-55
2021/09/07 00:54:32;;;;;;;24.00;14.40;;;15.50;99.90;;;;;;5072590;28;20810;-56
2021/09/07 00:56:58;;;;;;;22.00;14.10;;;15.30;99.90;;;;;;5072029;28;20387;-55
2021/09/07 00:59:24;;;;;;;25.43;13.40;;;15.20;99.90;;;;;;5072853;28;20387;-55
2021/09/07 01:01:50;;;;;;;22.73;14.13;;;15.20;99.90;;;;;;5071779;28;20396;-56
2021/09/07 01:04:17;;;;;;;21.40;14.43;;;15.20;99.90;;;;;;5072689;28;20403;-56
2021/09/07 01:06:43;;;;;;;20.10;13.80;;;15.20;99.90;;;;;;5072429;28;20383;-56
2021/09/07 01:09:10;;;;;;;20.90;13.60;;;15.30;99.90;;;;;;5072323;28;20383;-56
2021/09/07 01:11:36;;;;;;;20.40;13.70;;;15.40;99.90;;;;;;5071881;28;20382;-56
2021/09/07 01:14:02;;;;;;;20.50;13.10;;;15.30;99.90;;;;;;5071785;28;20380;-56
2021/09/07 01:16:28;;;;;;;21.42;13.23;;;15.10;99.90;;;;;;5072182;28;20391;-55
2021/09/07 01:18:55;;;;;;;18.85;12.90;;;15.00;99.90;;;;;;5071774;28;20986;-56
2021/09/07 01:21:21;;;;;;;21.95;14.23;;;15.10;99.90;;;;;;5072581;28;20395;-57
2021/09/07 01:23:48;;;;;;;22.13;13.07;;;15.20;99.90;;;;;;5071370;28;20779;-56
2021/09/07 01:26:19;;;;;;;18.65;12.52;;;15.20;99.90;;;;;;5072724;28;20888;-56
2021/09/07 01:28:46;;;;;;;21.33;12.95;;;15.10;99.90;;;;;;5071343;28;20807;-57
2021/09/07 01:31:12;;;;;;;20.08;12.82;;;15.10;99.90;;;;;;5072341;28;20384;-56
2021/09/07 01:33:39;;;;;;;19.33;12.73;;;15.20;99.90;;;;;;5071969;28;20387;-55
2021/09/07 01:36:05;;;;;;;20.30;12.65;;;15.20;99.90;;;;;;5070036;28;20433;-55
2021/09/07 01:38:32;;;;;;;22.55;12.70;;;15.10;99.90;;;;;;5071974;28;20486;-56
2021/09/07 01:40:59;;;;;;;19.88;13.57;;;15.10;99.90;;;;;;5070960;28;20397;-56
2021/09/07 01:43:25;;;;;;;19.20;12.93;;;15.10;99.90;;;;;;5072077;28;20384;-56
2021/09/07 01:45:52;;;;;;;18.50;12.10;;;15.00;99.90;;;;;;5071204;28;20379;-56
2021/09/07 01:48:19;;;;;;;20.70;14.03;;;15.00;99.90;;;;;;5072057;28;20465;-56
2021/09/07 01:50:46;;;;;;;19.52;13.20;;;14.90;99.90;;;;;;5071154;28;20380;-56
2021/09/07 01:53:12;;;;;;;21.55;14.13;;;15.00;99.90;;;;;;5071382;28;20384;-56
2021/09/07 01:55:38;;;;;;;21.40;13.27;;;15.00;99.90;;;;;;5071583;28;20376;-56
2021/09/07 01:58:03;;;;;;;20.67;13.40;;;15.00;99.90;;;;;;5070798;28;20380;-56
2021/09/07 02:00:29;;;;;;;20.05;13.38;;;14.90;99.90;;;;;;5071482;28;20607;-56
2021/09/07 02:02:55;;;;;;;24.00;13.68;;;14.80;99.90;;;;;;5070707;28;20384;-55
2021/09/07 02:05:21;;;;;;;19.70;13.47;;;14.80;99.90;;;;;;5071604;28;20379;-56
2021/09/07 02:07:47;;;;;;;19.35;12.70;;;14.80;99.90;;;;;;5070683;28;20501;-56
2021/09/07 02:10:13;;;;;;;21.30;12.90;;;14.80;99.90;;;;;;5071351;28;20437;-56
2021/09/07 02:12:39;;;;;;;20.08;13.00;;;14.90;99.90;;;;;;5071552;28;20384;-55
2021/09/07 02:15:05;;;;;;;21.65;13.50;;;14.90;99.90;;;;;;5070604;28;21082;-56
2021/09/07 02:17:31;;;;;;;19.33;12.88;;;14.90;99.90;;;;;;5071119;28;20439;-55
2021/09/07 02:19:57;;;;;;;21.43;13.30;;;14.80;99.90;;;;;;5070927;28;20430;-56
2021/09/07 02:22:23;;;;;;;21.10;13.10;;;14.80;99.90;;;;;;5069834;28;20408;-56
2021/09/07 02:24:49;;;;;;;20.30;12.87;;;14.70;99.90;;;;;;5070189;28;20377;-56
2021/09/07 02:27:14;;;;;;;20.30;12.68;;;14.70;99.90;;;;;;5071091;28;20921;-55
2021/09/07 02:29:41;;;;;;;20.67;13.17;;;14.70;99.90;;;;;;5070983;28;20392;-56
2021/09/07 02:32:07;;;;;;;19.92;13.32;;;14.70;99.90;;;;;;5070481;28;20418;-56
2021/09/07 02:34:33;;;;;;;19.58;12.60;;;14.70;99.90;;;;;;5071379;28;20380;-56
2021/09/07 02:36:59;;;;;;;20.05;12.70;;;14.80;99.90;;;;;;5070633;28;20445;-56
2021/09/07 02:39:25;;;;;;;21.63;14.02;;;14.70;99.90;;;;;;5070405;28;20384;-56
2021/09/07 02:41:50;;;;;;;20.33;13.70;;;14.70;99.90;;;;;;5070156;28;20380;-56
2021/09/07 02:44:16;;;;;;;20.60;13.73;;;14.70;99.90;;;;;;5070524;28;20386;-56
2021/09/07 02:46:42;;;;;;;20.58;13.90;;;14.60;99.90;;;;;;5070298;28;20419;-56
2021/09/07 02:49:07;;;;;;;21.07;13.20;;;14.60;99.90;;;;;;5070033;28;20395;-56
2021/09/07 02:51:33;;;;;;;23.35;14.15;;;14.60;99.90;;;;;;5070750;28;20424;-56
2021/09/07 02:53:58;;;;;;;23.75;14.38;;;14.50;99.90;;;;;;5069796;28;20475;-56
2021/09/07 02:56:24;;;;;;;22.33;14.43;;;14.40;99.90;;;;;;5070468;28;20778;-56
2021/09/07 02:58:50;;;;;;;21.40;15.27;;;14.30;99.90;;;;;;5069399;28;20857;-56
2021/09/07 03:01:16;;;;;;;22.80;14.45;;;14.20;99.90;;;;;;5070658;28;20376;-56
2021/09/07 03:03:41;;;;;;;24.10;16.40;;;14.10;99.90;;;;;;5069500;28;20372;-56
2021/09/07 03:06:07;;;;;;;24.50;17.13;;;14.20;99.90;;;;;;5069619;28;20403;-56
2021/09/07 03:08:33;;;;;;;26.70;16.97;;;14.30;99.90;;;;;;5070207;28;20525;-55
2021/09/07 03:10:58;;;;;;;25.83;16.85;;;14.20;99.90;;;;;;5068038;28;20499;-56
2021/09/07 03:13:24;;;;;;;24.10;16.30;;;14.30;99.90;;;;;;5070189;28;20379;-55
2021/09/07 03:15:51;;;;;;;27.07;16.90;;;14.30;99.90;;;;;;5069652;28;20399;-56
2021/09/07 03:18:17;;;;;;;26.58;16.98;;;14.30;99.90;;;;;;5069746;28;20419;-55
2021/09/07 03:20:42;;;;;;;27.73;17.33;;;14.30;99.90;;;;;;5070136;28;20380;-56
2021/09/07 03:23:08;;;;;;;28.10;18.70;;;14.40;99.90;;;;;;5069205;28;20383;-56
2021/09/07 03:25:34;;;;;;;28.67;17.80;;;14.40;99.90;;;;;;5070390;28;20380;-56
2021/09/07 03:27:59;;;;;;;25.35;17.10;;;14.30;99.90;;;;;;5069109;28;20415;-56
2021/09/07 03:30:26;;;;;;;27.20;17.43;;;14.30;99.90;;;;;;5069787;28;20384;-56
2021/09/07 03:32:52;;;;;;;25.00;17.00;;;14.40;99.90;;;;;;5069118;28;20387;-56
2021/09/07 03:35:18;;;;;;;24.73;16.65;;;14.50;99.90;;;;;;5069559;28;20430;-56
2021/09/07 03:37:45;;;;;;;23.73;15.63;;;14.60;99.90;;;;;;5069930;28;20399;-56
2021/09/07 03:40:12;;;;;;;24.92;15.57;;;14.50;99.90;;;;;;5068924;28;20375;-56
2021/09/07 03:42:39;;;;;;;23.38;15.65;;;14.50;99.90;;;;;;5069526;28;20499;-56
2021/09/07 03:45:08;;;;;;;24.80;15.80;;;14.60;99.90;;;;;;5068971;28;20467;-56
2021/09/07 03:47:34;;;;;;;24.88;14.95;;;14.60;99.90;;;;;;5068385;28;20915;-55
2021/09/07 03:50:00;;;;;;;24.50;15.70;;;14.60;99.90;;;;;;5068689;28;20452;-56
2021/09/07 03:52:26;;;;;;;23.40;15.82;;;14.60;99.90;;;;;;5069807;28;20475;-56
2021/09/07 03:54:51;;;;;;;24.10;14.83;;;14.50;99.90;;;;;;5068867;28;20730;-56
2021/09/07 03:57:17;;;;;;;25.25;14.80;;;14.50;99.90;;;;;;5069405;28;20786;-55
2021/09/07 03:59:43;;;;;;;23.20;15.35;;;14.40;99.90;;;;;;5069309;28;20395;-56
2021/09/07 04:02:08;;;;;;;26.30;16.63;;;14.40;99.90;;;;;;5068357;28;21209;-57
2021/09/07 04:04:34;;;;;;;26.58;16.15;;;14.30;99.90;;;;;;5069360;28;20380;-56
2021/09/07 04:07:01;;;;;;;27.58;15.60;;;14.30;99.90;;;;;;5068632;28;20435;-55
2021/09/07 04:09:26;;;;;;;26.00;16.17;;;14.30;99.90;;;;;;5069358;28;20388;-55
2021/09/07 04:11:52;;;;;;;29.38;16.83;;;14.30;99.90;;;;;;5068451;28;20387;-56
2021/09/07 04:14:18;;;;;;;28.63;16.70;;;14.30;99.90;;;;;;5068942;28;20609;-56
2021/09/07 04:16:44;;;;;;;26.52;16.58;;;14.40;99.90;;;;;;5068960;28;20483;-55
2021/09/07 04:19:10;;;;;;;26.43;16.47;;;14.30;99.90;;;;;;5068383;28;20849;-56
2021/09/07 04:21:36;;;;;;;26.83;17.10;;;14.20;99.90;;;;;;5069785;28;20415;-56
2021/09/07 04:24:03;;;;;;;25.95;16.60;;;14.20;99.90;;;;;;5068516;28;20414;-56
2021/09/07 04:26:30;;;;;;;24.45;16.00;;;14.20;99.90;;;;;;5068964;28;20411;-57
2021/09/07 04:28:57;;;;;;;26.92;17.60;;;14.20;99.90;;;;;;5067927;28;20885;-56
2021/09/07 04:31:22;;;;;;;24.90;16.58;;;14.20;99.90;;;;;;5069057;28;20401;-56
2021/09/07 04:33:48;;;;;;;26.40;16.63;;;14.20;99.90;;;;;;5069004;28;20388;-56
2021/09/07 04:36:14;;;;;;;28.57;17.53;;;14.20;99.90;;;;;;5068512;28;20442;-56
2021/09/07 04:38:39;;;;;;;24.50;16.73;;;14.10;99.90;;;;;;5068745;28;20749;-56
2021/09/07 04:41:05;;;;;;;27.23;17.53;;;14.20;99.90;;;;;;5068126;28;20425;-56
2021/09/07 04:43:31;;;;;;;25.08;16.30;;;14.10;99.90;;;;;;5078280;28;20385;-56
2021/09/07 04:45:57;;;;;;;27.53;17.93;;;14.10;99.90;;;;;;5063790;28;20406;-56
2021/09/07 04:48:22;;;;;;;27.67;18.38;;;14.20;99.90;;;;;;5059258;28;20416;-56
2021/09/07 04:50:48;;;;;;;27.23;17.90;;;14.20;99.90;;;;;;5060042;28;20396;-56
2021/09/07 04:53:14;;;;;;;31.30;19.00;;;15.50;99.90;;;;;;5068524;28;20402;-55
2021/09/07 04:55:39;;;;;;;32.60;18.07;;;14.30;99.90;;;;;;5088659;28;20378;-56
2021/09/07 04:58:05;;;;;;;24.70;16.27;;;14.30;99.90;;;;;;5064245;28;20470;-56
2021/09/07 05:00:31;;;;;;;29.10;16.70;;;14.30;99.90;;;;;;5048358;28;20385;-55
2021/09/07 05:02:56;;;;;;;27.40;17.10;;;14.40;99.90;;;;;;5047914;28;20400;-55
2021/09/07 05:05:22;;;;;;;28.13;17.57;;;14.40;99.90;;;;;;5048501;28;20510;-55
2021/09/07 05:07:48;;;;;;;29.50;17.30;;;14.40;99.90;;;;;;5048004;28;20818;-55
2021/09/07 05:10:13;;;;;;;26.65;18.10;;;14.40;99.90;;;;;;5047762;28;20397;-56
2021/09/07 05:12:39;;;;;;;27.73;18.87;;;14.50;99.90;;;;;;5048554;28;20395;-56
2021/09/07 05:15:06;;;;;;;26.75;16.90;;;14.60;99.90;;;;;;5057939;28;20494;-56
2021/09/07 05:17:32;;;;;;;25.80;17.60;;;14.60;99.90;;;;;;5068169;28;20411;-56
2021/09/07 05:19:58;;;;;;;24.70;17.00;;;14.80;99.90;;;;;;5067755;28;20380;-56
2021/09/07 05:22:24;;;;;;;26.57;16.70;;;14.90;99.90;;;;;;5068174;28;20471;-55
2021/09/07 05:24:49;;;;;;;27.05;16.90;;;14.90;99.90;;;;;;5067240;28;20384;-56
2021/09/07 05:27:15;;;;;;;25.77;16.27;;;15.00;99.90;;;;;;5069717;28;20433;-56
2021/09/07 05:29:41;;;;;;;26.43;17.23;;;15.00;99.90;;;;;;5071330;28;20387;-55
2021/09/07 05:32:07;;;;;;;27.90;15.85;;;15.10;99.90;;;;;;5071059;28;21058;-55
2021/09/07 05:34:33;;;;;;;25.47;17.10;;;15.10;99.90;;;;;;5072316;28;20384;-56
2021/09/07 05:36:58;;;;;;;25.60;15.88;;;15.20;99.90;;;;;;5071185;28;20888;-56
2021/09/07 05:39:24;;;;;;;23.90;15.77;;;15.10;99.90;;;;;;5072428;28;20408;-56
2021/09/07 05:41:51;;;;;;;24.55;15.88;;;15.10;99.90;;;;;;5071688;28;20380;-56
2021/09/07 05:44:17;;;;;;;26.10;15.90;;;15.20;99.90;;;;;;5071921;28;20384;-55
2021/09/07 05:46:43;;;;;;;29.07;16.73;;;15.20;99.90;;;;;;5071485;28;20410;-56
2021/09/07 05:49:08;;;;;;;24.90;15.00;;;15.30;99.90;;;;;;5063019;28;20482;-56
2021/09/07 05:51:34;;;;;;;26.27;15.65;;;15.30;99.90;;;;;;5071229;28;20746;-56
2021/09/07 05:54:00;;;;;;;23.60;15.30;;;15.40;99.90;;;;;;5071175;28;20388;-56
2021/09/07 05:56:25;;;;;;;24.73;15.07;;;15.50;99.90;;;;;;5070549;28;20384;-56
2021/09/07 05:58:51;;;;;;;26.80;16.60;;;15.60;99.90;;;;;;5070773;28;20395;-56
2021/09/07 06:01:17;;;;;;;23.23;15.30;;;15.80;99.90;;;;;;5071005;28;20473;-56
2021/09/07 06:03:42;;;;;;;25.27;16.37;;;15.90;99.90;;;;;;5070949;28;20881;-56
2021/09/07 06:06:08;;;;;;;25.97;15.73;;;15.70;99.90;;;;;;5069662;28;20384;-56
2021/09/07 06:08:34;;;;;;;23.92;15.73;;;15.60;99.90;;;;;;5071537;28;20411;-55
2021/09/07 06:11:00;;;;;;;24.23;15.60;;;15.70;99.90;;;;;;5070070;28;20441;-56
2021/09/07 06:13:26;;;;;;;22.98;15.35;;;15.70;99.90;;;;;;5071146;28;20419;-55
2021/09/07 06:15:51;;;;;;;22.80;15.40;;;14.60;99.90;;;;;;5070355;28;20391;-56
2021/09/07 06:18:17;;;;;;;24.77;15.20;;;16.00;99.90;;;;;;5069570;28;20495;-55
2021/09/07 06:20:45;;;;;;;24.58;15.60;;;16.00;99.90;;;;;;5069829;28;20419;-56
2021/09/07 06:23:10;;;;;;;26.20;16.13;;;16.10;99.90;;;;;;5069967;28;20449;-56
2021/09/07 06:25:36;;;;;;;24.10;14.30;;;16.30;99.90;;;;;;5070373;28;20441;-56
2021/09/07 06:28:02;;;;;;;24.80;15.63;;;16.50;99.90;;;;;;5069954;28;20400;-56
2021/09/07 06:30:28;;;;;;;22.27;14.85;;;16.80;99.90;;;;;;5071094;28;20466;-56
2021/09/07 06:32:53;;;;;;;25.70;15.77;;;17.00;99.90;;;;;;5069841;28;20380;-56
2021/09/07 06:35:19;;;;;;;23.83;14.30;;;17.20;99.90;;;;;;5068930;28;20884;-56
2021/09/07 06:37:45;;;;;;;22.93;14.87;;;17.60;99.90;;;;;;5070902;28;20422;-55
2021/09/07 06:40:11;;;;;;;22.03;14.50;;;18.10;99.90;;;;;;5070146;28;20414;-56
2021/09/07 06:42:37;;;;;;;21.33;14.00;;;19.10;99.90;;;;;;5070730;28;20415;-56
2021/09/07 06:45:06;;;;;;;22.90;14.00;;;19.90;99.90;;;;;;5069921;28;20415;-56
2021/09/07 06:47:31;;;;;;;21.65;14.10;;;20.60;99.90;;;;;;5070645;28;20444;-57
2021/09/07 06:50:00;;;;;;;18.70;13.03;;;21.30;99.90;;;;;;5069628;28;20431;-57
2021/09/07 06:52:26;;;;;;;20.73;13.13;;;21.80;99.90;;;;;;5070231;28;20489;-58
2021/09/07 06:54:52;;;;;;;18.10;13.45;;;22.30;99.90;;;;;;5069504;28;20495;-57
2021/09/07 06:57:18;;;;;;;19.60;13.07;;;23.10;99.90;;;;;;5070656;28;20905;-57
2021/09/07 06:59:43;;;;;;;19.50;13.60;;;23.70;99.90;;;;;;5071046;28;20395;-57
2021/09/07 07:02:09;;;;;;;22.43;13.40;;;23.30;99.90;;;;;;5069468;28;20962;-56
2021/09/07 07:04:35;;;;;;;20.10;13.40;;;23.20;99.90;;;;;;5070193;28;20399;-57
2021/09/07 07:07:00;;;;;;;22.80;14.13;;;23.30;99.90;;;;;;5069686;28;20674;-56
2021/09/07 07:09:26;;;;;;;21.63;14.60;;;23.10;99.90;;;;;;5069273;28;20415;-56
2021/09/07 07:11:51;;;;;;;22.90;13.90;;;23.60;99.90;;;;;;5068922;28;20399;-57
2021/09/07 07:14:21;;;;;;;22.17;14.07;;;24.10;99.90;;;;;;5069762;28;20375;-57
2021/09/07 07:16:50;;;;;;;25.50;14.30;;;24.60;99.90;;;;;;5069683;28;20411;-57
2021/09/07 07:19:16;;;;;;;25.75;14.50;;;24.10;99.90;;;;;;5068352;28;20403;-56
2021/09/07 07:21:42;;;;;;;25.58;15.10;;;23.70;99.90;;;;;;5069419;28;20381;-57
2021/09/07 07:24:07;;;;;;;21.80;14.25;;;22.80;99.90;;;;;;5069086;28;20376;-56
2021/09/07 07:26:33;;;;;;;23.30;13.80;;;22.30;99.90;;;;;;5069399;28;20463;-56
2021/09/07 07:28:59;;;;;;;20.13;13.50;;;22.30;99.90;;;;;;5068771;28;20991;-56
2021/09/07 07:31:24;;;;;;;21.40;13.97;;;22.70;99.90;;;;;;5069430;28;20876;-56
2021/09/07 07:33:50;;;;;;;20.40;13.40;;;23.60;99.90;;;;;;5069244;28;20380;-57
2021/09/07 07:36:16;;;;;;;22.40;14.52;;;25.00;99.90;;;;;;5068929;28;20414;-56
2021/09/07 07:38:42;;;;;;;20.02;13.20;;;25.30;99.90;;;;;;5069363;28;20384;-57
2021/09/07 07:41:07;;;;;;;19.33;13.75;;;25.40;99.90;;;;;;5068647;28;20441;-56
2021/09/07 07:43:43;;;;;;;20.33;14.20;;;25.30;99.90;;;;;;5069341;28;20812;-57
2021/09/07 07:46:09;;;;;;;22.45;14.50;;;25.40;99.90;;;;;;5068498;28;20388;-57
2021/09/07 07:48:35;;;;;;;25.07;14.10;;;25.70;99.90;;;;;;5069279;28;20723;-57
2021/09/07 07:51:01;;;;;;;32.70;14.90;;;26.30;99.90;;;;;;5067724;28;20814;-57
2021/09/07 07:53:26;;;;;;;23.70;13.67;;;26.60;99.90;;;;;;5068911;28;20920;-56
2021/09/07 07:55:52;;;;;;;21.13;14.07;;;27.20;98.40;;;;;;5068511;28;20476;-55
2021/09/07 07:58:17;;;;;;;23.37;14.57;;;27.40;96.40;;;;;;5067945;28;20860;-54
2021/09/07 08:00:45;;;;;;;17.50;12.90;;;27.00;96.30;;;;;;5068399;28;20380;-55
2021/09/07 08:03:12;;;;;;;18.92;13.40;;;27.50;95.90;;;;;;5067816;28;20986;-55
2021/09/07 08:05:38;;;;;;;20.33;13.43;;;27.80;93.80;;;;;;5068876;28;20470;-54
2021/09/07 08:08:05;;;;;;;21.67;13.50;;;27.80;94.10;;;;;;5068153;28;20749;-55
2021/09/07 08:10:31;;;;;;;20.10;13.32;;;27.80;92.80;;;;;;5068480;28;20453;-55
2021/09/07 08:12:56;;;;;;;19.33;13.13;;;27.60;93.60;;;;;;5067757;28;20399;-55
2021/09/07 08:15:22;;;;;;;18.67;12.85;;;27.40;93.60;;;;;;5062216;28;20395;-55
2021/09/07 08:17:49;;;;;;;17.70;13.60;;;28.80;92.50;;;;;;5053969;28;20487;-58
2021/09/07 08:20:16;;;;;;;17.93;14.10;;;29.70;88.00;;;;;;5049275;28;20381;-58
2021/09/07 08:22:41;;;;;;;18.45;13.80;;;30.40;83.90;;;;;;5048944;28;20743;-58
2021/09/07 08:25:08;;;;;;;18.90;14.05;;;30.90;80.60;;;;;;5048718;28;20381;-57
2021/09/07 08:27:34;;;;;;;17.90;14.82;;;31.30;76.90;;;;;;5049276;28;20409;-58
2021/09/07 08:29:59;;;;;;;17.52;13.85;;;31.00;78.10;;;;;;5047131;28;20863;-57
2021/09/07 08:32:25;;;;;;;17.07;13.30;;;31.20;75.70;;;;;;5063131;28;20402;-56
2021/09/07 08:34:51;;;;;;;18.87;14.17;;;32.60;70.40;;;;;;5063955;28;20380;-55
2021/09/07 08:37:16;;;;;;;18.53;12.10;;;33.00;68.60;;;;;;5062821;28;20379;-56
2021/09/07 08:39:42;;;;;;;17.25;11.65;;;33.60;63.80;;;;;;5062223;28;20472;-55
2021/09/07 08:42:12;;;;;;;16.23;12.40;;;34.10;60.80;;;;;;5061727;28;20699;-56
2021/09/07 08:44:45;;;;;;;17.13;12.80;;;34.40;57.90;;;;;;5063608;28;20379;-55
2021/09/07 08:47:16;;;;;;;15.70;11.18;;;34.80;56.20;;;;;;5067103;28;20461;-55
2021/09/07 08:49:43;;;;;;;16.92;11.70;;;34.30;55.80;;;;;;5067887;28;20437;-56
2021/09/07 08:52:11;;;;;;;16.60;12.57;;;34.80;54.50;;;;;;5066389;28;20768;-56
2021/09/07 08:54:37;;;;;;;17.83;13.50;;;34.20;54.10;;;;;;5067833;28;20384;-56
2021/09/07 08:57:02;;;;;;;15.80;14.10;;;33.40;54.70;;;;;;5063293;28;20429;-56
2021/09/07 08:59:29;;;;;;;17.33;13.60;;;33.90;53.40;;;;;;5063281;28;20394;-56
2021/09/07 09:01:56;;;;;;;18.58;10.55;;;34.40;53.10;;;;;;5061225;28;20926;-56
2021/09/07 09:04:29;;;;;;;19.00;13.52;;;33.60;54.40;;;;;;5068849;28;20461;-55
2021/09/07 09:06:56;;;;;;;16.27;13.32;;;32.80;55.30;;;;;;5067031;28;20895;-55
2021/09/07 09:09:22;;;;;;;37.27;33.67;;;32.50;54.70;;;;;;5066748;28;20388;-57
2021/09/07 09:11:52;;;;;;;17.27;12.05;;;32.70;56.20;;;;;;5062831;28;20741;-57
2021/09/07 09:14:36;;;;;;;16.33;11.75;;;32.60;55.80;;;;;;5066793;28;20390;-57
2021/09/07 09:17:17;;;;;;;17.33;12.00;;;33.30;55.20;;;;;;5067214;28;20407;-56
2021/09/07 09:20:19;;;;;;;15.00;11.15;;;34.20;53.30;;;;;;5066529;28;20473;-57
2021/09/07 09:22:55;;;;;;;15.57;11.05;;;34.90;52.30;;;;;;5064703;28;20378;-56
2021/09/07 09:25:23;;;;;;;17.55;13.02;;;35.20;51.50;;;;;;5067551;28;20445;-57
2021/09/07 09:27:55;;;;;;;19.40;12.60;;;36.00;47.90;;;;;;5068194;28;20451;-58
2021/09/07 09:30:27;;;;;;;14.63;12.20;;;36.00;47.20;;;;;;5065857;28;20392;-59
2021/09/07 09:32:54;;;;;;;15.02;13.40;;;36.60;44.90;;;;;;5065871;28;20380;-59
2021/09/07 09:35:20;;;;;;;14.40;12.23;;;37.10;42.90;;;;;;5069273;28;20379;-59
2021/09/07 09:37:59;;;;;;;16.10;12.43;;;37.20;42.10;;;;;;5067143;28;20539;-59
2021/09/07 09:40:25;;;;;;;15.38;12.15;;;36.60;43.40;;;;;;5066928;28;20409;-58
2021/09/07 09:42:51;;;;;;;15.40;10.87;;;35.70;45.20;;;;;;5068288;28;20384;-58
2021/09/07 09:45:18;;;;;;;15.15;10.77;;;35.50;45.20;;;;;;5069195;28;20376;-59
2021/09/07 09:47:51;;;;;;;13.13;9.70;;;35.40;46.40;;;;;;5068541;28;20457;-59
2021/09/07 09:50:18;;;;;;;12.20;9.70;;;35.50;45.40;;;;;;5065322;28;20396;-59
2021/09/07 09:52:47;;;;;;;14.10;9.90;;;36.10;43.70;;;;;;5064682;28;20447;-58
2021/09/07 09:55:16;;;;;;;13.30;10.88;;;36.60;44.60;;;;;;5067351;28;20650;-59
2021/09/07 09:57:43;;;;;;;13.05;9.88;;;37.10;42.00;;;;;;5067629;28;20430;-58
2021/09/07 10:00:11;;;;;;;18.20;10.75;;;36.80;41.90;;;;;;5066200;28;20907;-58
2021/09/07 10:02:36;;;;;;;14.68;10.38;;;36.20;42.90;;;;;;5067552;28;20411;-58
2021/09/07 10:05:03;;;;;;;13.60;10.57;;;35.80;43.50;;;;;;5066575;28;20716;-58
2021/09/07 10:07:28;;;;;;;17.50;10.87;;;35.50;44.30;;;;;;5067534;28;20403;-58
2021/09/07 10:09:57;;;;;;;13.80;10.30;;;35.70;43.40;;;;;;5068697;28;20391;-58
2021/09/07 10:12:28;;;;;;;12.50;9.10;;;35.60;42.80;;;;;;5066764;28;20491;-56
2021/09/07 10:15:07;;;;;;;13.98;9.20;;;35.00;42.70;;;;;;5066206;28;20398;-56
2021/09/07 10:17:48;;;;;;;12.50;8.70;;;35.30;41.90;;;;;;5065796;28;20575;-56
2021/09/07 10:20:36;;;;;;;13.20;8.30;;;34.90;42.10;;;;;;5063236;28;21027;-57
2021/09/07 10:23:26;;;;;;;13.20;8.80;;;35.00;41.90;;;;;;5065191;28;20380;-56
2021/09/07 10:25:59;;;;;;;13.98;9.07;;;35.40;40.10;;;;;;5065612;28;20398;-56
2021/09/07 10:28:34;;;;;;;11.98;8.80;;;34.90;42.40;;;;;;5065046;28;20528;-56
2021/09/07 10:31:37;;;;;;;13.07;8.85;;;34.40;43.10;;;;;;5063810;28;20742;-57
2021/09/07 10:34:03;;;;;;;13.30;8.68;;;34.70;43.00;;;;;;5062481;28;20473;-56
2021/09/07 10:36:31;;;;;;;11.70;8.10;;;35.20;42.00;;;;;;5066686;28;20461;-56
2021/09/07 10:39:02;;;;;;;14.65;10.57;;;35.00;42.00;;;;;;5066762;28;20431;-57
2021/09/07 10:41:34;;;;;;;13.43;10.43;;;34.10;42.10;;;;;;5062272;28;20378;-57
2021/09/07 10:44:00;;;;;;;12.65;10.60;;;33.60;41.70;;;;;;5060802;28;20737;-56
2021/09/07 10:46:46;;;;;;;15.73;11.50;;;33.20;44.00;;;;;;5067969;28;20383;-57
2021/09/07 10:49:25;;;;;;;12.50;10.13;;;33.30;43.00;;;;;;5064570;28;20503;-56
2021/09/07 10:52:12;;;;;;;11.85;10.23;;;33.70;41.70;;;;;;5061835;28;20889;-57
2021/09/07 10:54:53;;;;;;;11.60;8.95;;;33.50;42.30;;;;;;5064094;28;20409;-58
2021/09/07 10:57:41;;;;;;;12.32;9.70;;;33.40;41.90;;;;;;5066039;28;20407;-57
2021/09/07 11:00:19;;;;;;;12.90;9.50;;;33.30;42.40;;;;;;5062650;28;20796;-57
2021/09/07 11:02:52;;;;;;;12.80;9.70;;;32.80;42.70;;;;;;5060915;28;20392;-56
2021/09/07 11:05:37;;;;;;;12.18;9.57;;;32.90;44.00;;;;;;5063204;28;20385;-57
2021/09/07 11:08:19;;;;;;;14.00;9.75;;;33.00;43.50;;;;;;5066140;28;20409;-56
2021/09/07 11:10:45;;;;;;;12.73;10.63;;;32.90;42.20;;;;;;5062796;28;20892;-57
2021/09/07 11:13:17;;;;;;;12.40;10.23;;;32.70;42.70;;;;;;5064839;28;20388;-56
2021/09/07 11:15:44;;;;;;;12.83;11.23;;;32.30;44.10;;;;;;5068060;28;20419;-57
2021/09/07 11:18:12;;;;;;;12.55;10.40;;;32.30;43.20;;;;;;5068528;28;20458;-56
2021/09/07 11:20:44;;;;;;;14.05;11.15;;;32.90;43.40;;;;;;5069447;28;20423;-56
2021/09/07 11:23:15;;;;;;;13.70;11.90;;;33.00;44.00;;;;;;5066986;28;20395;-56
2021/09/07 11:25:43;;;;;;;12.88;9.80;;;32.60;45.10;;;;;;5068425;28;20521;-56
2021/09/07 11:28:12;;;;;;;12.98;10.75;;;32.10;45.00;;;;;;5067600;28;20848;-57
2021/09/07 11:30:41;;;;;;;12.85;10.38;;;31.80;45.50;;;;;;5066358;28;20406;-56
2021/09/07 11:33:28;;;;;;;13.30;10.90;;;31.30;46.10;;;;;;5066009;28;20809;-56
2021/09/07 11:35:59;;;;;;;13.23;11.25;;;31.10;48.20;;;;;;5067974;28;20901;-57
2021/09/07 11:38:29;;;;;;;14.00;10.95;;;31.00;46.40;;;;;;5066777;28;20459;-58
2021/09/07 11:40:56;;;;;;;13.87;12.10;;;31.20;46.80;;;;;;5067757;28;20387;-58
2021/09/07 11:43:31;;;;;;;14.32;11.95;;;31.10;48.00;;;;;;5068477;28;20407;-56
2021/09/07 11:46:14;;;;;;;12.52;10.38;;;30.70;48.70;;;;;;5068955;28;20406;-56
2021/09/07 11:48:55;;;;;;;14.20;11.38;;;30.60;49.40;;;;;;5068656;28;20881;-56
2021/09/07 11:51:29;;;;;;;13.00;10.30;;;30.60;50.00;;;;;;5068536;28;20411;-56
2021/09/07 11:53:57;;;;;;;14.10;11.00;;;30.70;49.80;;;;;;5069023;28;20524;-57
2021/09/07 11:56:25;;;;;;;13.30;10.90;;;30.70;48.70;;;;;;5068320;28;20437;-57
2021/09/07 11:58:51;;;;;;;13.82;11.60;;;30.70;48.10;;;;;;5068774;28;20404;-57
2021/09/07 12:01:19;;;;;;;13.35;11.10;;;30.80;47.30;;;;;;5068076;28;20379;-57
2021/09/07 12:03:50;;;;;;;14.40;11.90;;;30.80;47.90;;;;;;5068849;28;20441;-57
2021/09/07 12:06:36;;;;;;;14.02;11.52;;;30.30;48.00;;;;;;5067594;28;20379;-57
2021/09/07 12:09:16;;;;;;;14.00;11.65;;;30.10;48.80;;;;;;5065369;28;20481;-57
2021/09/07 12:11:49;;;;;;;15.80;12.07;;;30.20;49.80;;;;;;5070081;28;20407;-57
2021/09/07 12:14:22;;;;;;;13.40;10.88;;;30.30;50.00;;;;;;5066754;28;20380;-57
2021/09/07 12:17:03;;;;;;;12.48;11.10;;;30.60;49.60;;;;;;5068377;28;20412;-58
2021/09/07 12:19:28;;;;;;;13.30;11.50;;;30.70;49.60;;;;;;5068298;28;20426;-61
2021/09/07 12:22:12;;;;;;;13.30;11.33;;;30.80;49.00;;;;;;5067753;28;20479;-58
2021/09/07 12:24:39;;;;;;;13.80;10.30;;;30.50;48.80;;;;;;5067405;28;20384;-57
2021/09/07 12:27:21;;;;;;;13.48;10.18;;;30.50;49.20;;;;;;5066290;28;21016;-57
2021/09/07 12:30:11;;;;;;;13.38;11.32;;;30.40;48.10;;;;;;5067575;28;20387;-57
2021/09/07 12:32:54;;;;;;;11.75;10.27;;;30.40;47.60;;;;;;5068031;28;20469;-57